Ashley, Louisiana
Current Conditions -  °F | °C
As of 11:53 PM on Sunday 25 Jan 2015 (Local Time) from KTVR Reporting Station
Broken Clouds Broken Clouds  
Wind Chill: 46°   Ceiling: 6500
Heat Index: 49°   Visibility: 10mi
Dew Point: 35°   Wind: 7mph
Humidity: 59%   Direction: 330°NNW
Pressure: 30.01"   Gusts: NA
Location:  32.3599°N, 91.2529°W
Report Text: KTVR 260553Z AUTO 33006KT 10SM BKN065 09/02 A3001 RMK AO2 SLP169 T00940017 10150 20094 402000039 51020
Loading
Personal Weather Stations






























Interactive Weather Map New forecast layout! Learn more

10-Day Weather Forecast

Advertisements
Track Severe Weather on mobile